sensor_id;sensor_type;location;lat;lon;timestamp;P1;durP1;ratioP1;P2;durP2;ratioP2
47021;SDS011;32779;52.264;6.154;2023-06-10T00:01:45;7.22;;;3.75;;
47021;SDS011;32779;52.264;6.154;2023-06-10T00:04:14;6.43;;;3.28;;
47021;SDS011;32779;52.264;6.154;2023-06-10T00:06:42;6.47;;;4.20;;
47021;SDS011;32779;52.264;6.154;2023-06-10T00:09:14;5.18;;;3.20;;
47021;SDS011;32779;52.264;6.154;2023-06-10T00:11:40;7.65;;;3.80;;
47021;SDS011;32779;52.264;6.154;2023-06-10T00:14:06;5.57;;;3.60;;
47021;SDS011;32779;52.264;6.154;2023-06-10T00:16:32;8.98;;;4.35;;
47021;SDS011;32779;52.264;6.154;2023-06-10T00:19:02;6.20;;;3.90;;
47021;SDS011;32779;52.264;6.154;2023-06-10T00:21:32;7.40;;;3.58;;
47021;SDS011;32779;52.264;6.154;2023-06-10T00:24:05;9.00;;;3.85;;
47021;SDS011;32779;52.264;6.154;2023-06-10T00:26:32;6.68;;;3.78;;
47021;SDS011;32779;52.264;6.154;2023-06-10T00:28:58;8.95;;;3.78;;
47021;SDS011;32779;52.264;6.154;2023-06-10T00:31:24;7.68;;;4.15;;
47021;SDS011;32779;52.264;6.154;2023-06-10T00:33:51;8.00;;;3.92;;
47021;SDS011;32779;52.264;6.154;2023-06-10T00:36:17;8.55;;;3.78;;
47021;SDS011;32779;52.264;6.154;2023-06-10T00:38:42;6.57;;;3.65;;
47021;SDS011;32779;52.264;6.154;2023-06-10T00:41:08;6.50;;;4.10;;
47021;SDS011;32779;52.264;6.154;2023-06-10T00:43:34;12.73;;;4.07;;
47021;SDS011;32779;52.264;6.154;2023-06-10T00:46:00;5.43;;;3.50;;
47021;SDS011;32779;52.264;6.154;2023-06-10T00:48:26;6.50;;;4.05;;
47021;SDS011;32779;52.264;6.154;2023-06-10T00:50:52;6.30;;;3.90;;
47021;SDS011;32779;52.264;6.154;2023-06-10T00:53:18;6.43;;;3.67;;
47021;SDS011;32779;52.264;6.154;2023-06-10T00:55:45;8.07;;;3.70;;
47021;SDS011;32779;52.264;6.154;2023-06-10T00:58:11;8.45;;;3.70;;
47021;SDS011;32779;52.264;6.154;2023-06-10T01:00:38;9.10;;;3.90;;
47021;SDS011;32779;52.264;6.154;2023-06-10T01:03:03;6.53;;;3.80;;
47021;SDS011;32779;52.264;6.154;2023-06-10T01:05:32;6.90;;;3.97;;
47021;SDS011;32779;52.264;6.154;2023-06-10T01:13:07;10.23;;;4.25;;
47021;SDS011;32779;52.264;6.154;2023-06-10T01:15:36;7.78;;;3.63;;
47021;SDS011;32779;52.264;6.154;2023-06-10T01:18:04;8.77;;;4.03;;
47021;SDS011;32779;52.264;6.154;2023-06-10T01:20:34;8.57;;;4.22;;
47021;SDS011;32779;52.264;6.154;2023-06-10T01:23:04;8.15;;;4.50;;
47021;SDS011;32779;52.264;6.154;2023-06-10T01:25:31;9.52;;;4.32;;
47021;SDS011;32779;52.264;6.154;2023-06-10T01:28:02;5.28;;;4.10;;
47021;SDS011;32779;52.264;6.154;2023-06-10T01:30:44;9.20;;;4.30;;
47021;SDS011;32779;52.264;6.154;2023-06-10T01:33:12;8.23;;;4.13;;
47021;SDS011;32779;52.264;6.154;2023-06-10T01:35:49;5.47;;;4.15;;
47021;SDS011;32779;52.264;6.154;2023-06-10T01:38:16;9.80;;;4.28;;
47021;SDS011;32779;52.264;6.154;2023-06-10T01:40:44;8.32;;;4.30;;
47021;SDS011;32779;52.264;6.154;2023-06-10T01:43:11;6.32;;;4.05;;
47021;SDS011;32779;52.264;6.154;2023-06-10T01:48:02;7.10;;;4.00;;
47021;SDS011;32779;52.264;6.154;2023-06-10T01:50:28;6.53;;;4.30;;
47021;SDS011;32779;52.264;6.154;2023-06-10T01:52:54;7.00;;;3.95;;
47021;SDS011;32779;52.264;6.154;2023-06-10T01:55:19;7.32;;;4.18;;
47021;SDS011;32779;52.264;6.154;2023-06-10T01:57:45;9.02;;;4.70;;
47021;SDS011;32779;52.264;6.154;2023-06-10T02:00:10;7.32;;;3.90;;
47021;SDS011;32779;52.264;6.154;2023-06-10T02:02:36;8.88;;;3.92;;
47021;SDS011;32779;52.264;6.154;2023-06-10T02:05:02;10.55;;;4.35;;
47021;SDS011;32779;52.264;6.154;2023-06-10T02:07:28;9.48;;;4.68;;
47021;SDS011;32779;52.264;6.154;2023-06-10T02:12:19;7.15;;;3.92;;
47021;SDS011;32779;52.264;6.154;2023-06-10T02:14:45;6.70;;;4.20;;
47021;SDS011;32779;52.264;6.154;2023-06-10T02:17:10;8.07;;;4.03;;
47021;SDS011;32779;52.264;6.154;2023-06-10T02:19:38;6.88;;;3.80;;
47021;SDS011;32779;52.264;6.154;2023-06-10T02:22:07;5.10;;;3.92;;
47021;SDS011;32779;52.264;6.154;2023-06-10T02:24:33;6.63;;;4.22;;
47021;SDS011;32779;52.264;6.154;2023-06-10T02:27:00;7.35;;;4.32;;
47021;SDS011;32779;52.264;6.154;2023-06-10T02:29:27;12.68;;;4.97;;
47021;SDS011;32779;52.264;6.154;2023-06-10T02:34:18;8.82;;;4.20;;
47021;SDS011;32779;52.264;6.154;2023-06-10T02:39:09;8.45;;;4.60;;
47021;SDS011;32779;52.264;6.154;2023-06-10T02:41:35;12.05;;;3.90;;
47021;SDS011;32779;52.264;6.154;2023-06-10T02:44:01;11.60;;;4.35;;
47021;SDS011;32779;52.264;6.154;2023-06-10T02:48:53;8.32;;;4.20;;
47021;SDS011;32779;52.264;6.154;2023-06-10T02:51:19;8.98;;;4.13;;
47021;SDS011;32779;52.264;6.154;2023-06-10T02:53:45;10.48;;;4.68;;
47021;SDS011;32779;52.264;6.154;2023-06-10T02:58:37;14.85;;;4.35;;
47021;SDS011;32779;52.264;6.154;2023-06-10T03:03:28;6.93;;;4.32;;
47021;SDS011;32779;52.264;6.154;2023-06-10T03:05:55;8.40;;;4.22;;
47021;SDS011;32779;52.264;6.154;2023-06-10T03:08:21;11.57;;;4.60;;
47021;SDS011;32779;52.264;6.154;2023-06-10T03:10:47;7.38;;;4.18;;
47021;SDS011;32779;52.264;6.154;2023-06-10T03:15:39;8.00;;;4.47;;
47021;SDS011;32779;52.264;6.154;2023-06-10T03:18:05;9.70;;;4.47;;
47021;SDS011;32779;52.264;6.154;2023-06-10T03:20:32;9.30;;;4.88;;
47021;SDS011;32779;52.264;6.154;2023-06-10T03:23:02;8.20;;;4.50;;
47021;SDS011;32779;52.264;6.154;2023-06-10T03:27:53;7.40;;;4.88;;
47021;SDS011;32779;52.264;6.154;2023-06-10T03:32:45;5.97;;;4.07;;
47021;SDS011;32779;52.264;6.154;2023-06-10T03:37:40;8.32;;;4.47;;
47021;SDS011;32779;52.264;6.154;2023-06-10T03:40:26;11.90;;;5.10;;
47021;SDS011;32779;52.264;6.154;2023-06-10T03:45:17;12.30;;;5.43;;
47021;SDS011;32779;52.264;6.154;2023-06-10T03:50:09;9.20;;;4.60;;
47021;SDS011;32779;52.264;6.154;2023-06-10T03:52:35;10.85;;;5.03;;
47021;SDS011;32779;52.264;6.154;2023-06-10T03:55:01;7.70;;;4.78;;
47021;SDS011;32779;52.264;6.154;2023-06-10T03:57:27;11.80;;;5.20;;
47021;SDS011;32779;52.264;6.154;2023-06-10T04:02:18;8.68;;;5.25;;
47021;SDS011;32779;52.264;6.154;2023-06-10T04:04:44;11.05;;;4.97;;
47021;SDS011;32779;52.264;6.154;2023-06-10T04:09:36;9.45;;;5.63;;
47021;SDS011;32779;52.264;6.154;2023-06-10T04:12:02;7.65;;;4.85;;
47021;SDS011;32779;52.264;6.154;2023-06-10T04:14:31;9.02;;;4.60;;
47021;SDS011;32779;52.264;6.154;2023-06-10T04:19:22;9.50;;;5.25;;
47021;SDS011;32779;52.264;6.154;2023-06-10T04:21:48;10.82;;;5.10;;
47021;SDS011;32779;52.264;6.154;2023-06-10T04:24:13;10.00;;;5.10;;
47021;SDS011;32779;52.264;6.154;2023-06-10T04:29:04;13.63;;;5.28;;
47021;SDS011;32779;52.264;6.154;2023-06-10T04:33:57;7.68;;;4.97;;
47021;SDS011;32779;52.264;6.154;2023-06-10T04:38:48;9.77;;;5.03;;
47021;SDS011;32779;52.264;6.154;2023-06-10T04:41:17;9.88;;;5.60;;
47021;SDS011;32779;52.264;6.154;2023-06-10T04:46:08;8.63;;;5.10;;
47021;SDS011;32779;52.264;6.154;2023-06-10T04:51:00;10.00;;;5.10;;
47021;SDS011;32779;52.264;6.154;2023-06-10T04:55:52;9.55;;;5.03;;
47021;SDS011;32779;52.264;6.154;2023-06-10T05:00:43;11.75;;;4.88;;
47021;SDS011;32779;52.264;6.154;2023-06-10T05:05:34;8.32;;;4.70;;
47021;SDS011;32779;52.264;6.154;2023-06-10T05:10:25;7.80;;;5.07;;
47021;SDS011;32779;52.264;6.154;2023-06-10T05:15:16;12.05;;;5.32;;
47021;SDS011;32779;52.264;6.154;2023-06-10T05:20:08;16.88;;;5.20;;
47021;SDS011;32779;52.264;6.154;2023-06-10T05:22:34;10.40;;;5.25;;
47021;SDS011;32779;52.264;6.154;2023-06-10T05:27:25;11.63;;;5.20;;
47021;SDS011;32779;52.264;6.154;2023-06-10T05:29:51;7.30;;;5.20;;
47021;SDS011;32779;52.264;6.154;2023-06-10T05:32:16;9.95;;;5.35;;
47021;SDS011;32779;52.264;6.154;2023-06-10T05:34:42;9.40;;;4.65;;
47021;SDS011;32779;52.264;6.154;2023-06-10T05:37:10;8.32;;;4.45;;
47021;SDS011;32779;52.264;6.154;2023-06-10T05:42:06;11.02;;;5.00;;
47021;SDS011;32779;52.264;6.154;2023-06-10T05:44:32;8.25;;;4.93;;
47021;SDS011;32779;52.264;6.154;2023-06-10T05:49:24;9.02;;;4.80;;
47021;SDS011;32779;52.264;6.154;2023-06-10T05:54:17;6.35;;;4.25;;
47021;SDS011;32779;52.264;6.154;2023-06-10T05:59:09;8.15;;;5.07;;
47021;SDS011;32779;52.264;6.154;2023-06-10T06:04:00;7.80;;;5.18;;
47021;SDS011;32779;52.264;6.154;2023-06-10T06:06:26;5.90;;;4.65;;
47021;SDS011;32779;52.264;6.154;2023-06-10T06:08:51;8.27;;;4.53;;
47021;SDS011;32779;52.264;6.154;2023-06-10T06:13:43;11.40;;;5.03;;
47021;SDS011;32779;52.264;6.154;2023-06-10T06:18:34;13.00;;;5.10;;
47021;SDS011;32779;52.264;6.154;2023-06-10T06:21:01;9.27;;;4.32;;
47021;SDS011;32779;52.264;6.154;2023-06-10T06:25:52;10.48;;;4.47;;
47021;SDS011;32779;52.264;6.154;2023-06-10T06:28:18;11.35;;;4.38;;
47021;SDS011;32779;52.264;6.154;2023-06-10T06:30:46;9.82;;;4.85;;
47021;SDS011;32779;52.264;6.154;2023-06-10T06:33:11;10.95;;;4.65;;
47021;SDS011;32779;52.264;6.154;2023-06-10T06:35:37;7.63;;;4.57;;
47021;SDS011;32779;52.264;6.154;2023-06-10T06:38:03;7.80;;;4.43;;
47021;SDS011;32779;52.264;6.154;2023-06-10T06:40:29;7.45;;;3.50;;
47021;SDS011;32779;52.264;6.154;2023-06-10T06:42:55;11.02;;;4.13;;
47021;SDS011;32779;52.264;6.154;2023-06-10T06:45:20;8.27;;;4.10;;
47021;SDS011;32779;52.264;6.154;2023-06-10T06:47:46;8.77;;;4.20;;
47021;SDS011;32779;52.264;6.154;2023-06-10T06:50:12;14.68;;;4.18;;
47021;SDS011;32779;52.264;6.154;2023-06-10T06:52:37;6.50;;;4.03;;
47021;SDS011;32779;52.264;6.154;2023-06-10T06:55:03;11.70;;;4.00;;
47021;SDS011;32779;52.264;6.154;2023-06-10T06:57:41;12.48;;;4.10;;
47021;SDS011;32779;52.264;6.154;2023-06-10T07:00:10;10.90;;;4.30;;
47021;SDS011;32779;52.264;6.154;2023-06-10T07:02:38;9.88;;;4.38;;
47021;SDS011;32779;52.264;6.154;2023-06-10T07:05:05;7.95;;;3.97;;
47021;SDS011;32779;52.264;6.154;2023-06-10T07:07:34;6.72;;;3.30;;
47021;SDS011;32779;52.264;6.154;2023-06-10T07:10:02;7.50;;;3.80;;
47021;SDS011;32779;52.264;6.154;2023-06-10T07:12:28;7.15;;;4.13;;
47021;SDS011;32779;52.264;6.154;2023-06-10T07:14:54;4.50;;;3.38;;
47021;SDS011;32779;52.264;6.154;2023-06-10T07:17:19;10.38;;;4.10;;
47021;SDS011;32779;52.264;6.154;2023-06-10T07:19:45;8.52;;;3.65;;
47021;SDS011;32779;52.264;6.154;2023-06-10T07:22:11;11.23;;;4.43;;
47021;SDS011;32779;52.264;6.154;2023-06-10T07:24:37;10.23;;;4.13;;
47021;SDS011;32779;52.264;6.154;2023-06-10T07:27:02;9.90;;;3.85;;
47021;SDS011;32779;52.264;6.154;2023-06-10T07:29:28;7.97;;;4.13;;
47021;SDS011;32779;52.264;6.154;2023-06-10T07:31:54;6.60;;;3.72;;
47021;SDS011;32779;52.264;6.154;2023-06-10T07:34:20;6.22;;;3.22;;
47021;SDS011;32779;52.264;6.154;2023-06-10T07:36:45;5.00;;;3.25;;
47021;SDS011;32779;52.264;6.154;2023-06-10T07:39:11;7.63;;;3.22;;
47021;SDS011;32779;52.264;6.154;2023-06-10T07:41:36;5.53;;;2.75;;
47021;SDS011;32779;52.264;6.154;2023-06-10T07:44:02;9.23;;;3.72;;
47021;SDS011;32779;52.264;6.154;2023-06-10T07:46:28;6.10;;;3.30;;
47021;SDS011;32779;52.264;6.154;2023-06-10T07:48:54;6.68;;;3.15;;
47021;SDS011;32779;52.264;6.154;2023-06-10T07:51:20;9.35;;;3.42;;
47021;SDS011;32779;52.264;6.154;2023-06-10T07:53:46;7.00;;;3.60;;
47021;SDS011;32779;52.264;6.154;2023-06-10T07:56:12;7.20;;;3.65;;
47021;SDS011;32779;52.264;6.154;2023-06-10T07:58:37;8.25;;;3.85;;
47021;SDS011;32779;52.264;6.154;2023-06-10T08:01:03;5.13;;;2.95;;
47021;SDS011;32779;52.264;6.154;2023-06-10T08:03:29;6.70;;;3.05;;
47021;SDS011;32779;52.264;6.154;2023-06-10T08:05:55;5.40;;;3.30;;
47021;SDS011;32779;52.264;6.154;2023-06-10T08:08:20;7.85;;;3.42;;
47021;SDS011;32779;52.264;6.154;2023-06-10T08:10:46;5.30;;;2.88;;
47021;SDS011;32779;52.264;6.154;2023-06-10T08:13:12;6.20;;;3.13;;
47021;SDS011;32779;52.264;6.154;2023-06-10T08:15:37;4.32;;;2.90;;
47021;SDS011;32779;52.264;6.154;2023-06-10T08:18:03;11.90;;;2.97;;
47021;SDS011;32779;52.264;6.154;2023-06-10T08:20:29;5.18;;;3.20;;
47021;SDS011;32779;52.264;6.154;2023-06-10T08:22:54;7.95;;;3.10;;
47021;SDS011;32779;52.264;6.154;2023-06-10T08:25:20;5.63;;;2.95;;
47021;SDS011;32779;52.264;6.154;2023-06-10T08:27:49;8.90;;;3.35;;
47021;SDS011;32779;52.264;6.154;2023-06-10T08:30:15;5.35;;;3.08;;
47021;SDS011;32779;52.264;6.154;2023-06-10T08:32:41;6.05;;;3.10;;
47021;SDS011;32779;52.264;6.154;2023-06-10T08:35:07;11.73;;;3.50;;
47021;SDS011;32779;52.264;6.154;2023-06-10T08:37:33;4.85;;;3.17;;
47021;SDS011;32779;52.264;6.154;2023-06-10T08:39:58;8.20;;;2.92;;
47021;SDS011;32779;52.264;6.154;2023-06-10T08:42:34;5.43;;;2.88;;
47021;SDS011;32779;52.264;6.154;2023-06-10T08:45:05;10.00;;;3.17;;
47021;SDS011;32779;52.264;6.154;2023-06-10T08:47:37;4.82;;;3.47;;
47021;SDS011;32779;52.264;6.154;2023-06-10T08:50:04;4.95;;;3.05;;
47021;SDS011;32779;52.264;6.154;2023-06-10T08:52:36;5.75;;;3.10;;
47021;SDS011;32779;52.264;6.154;2023-06-10T08:55:03;6.40;;;2.97;;
47021;SDS011;32779;52.264;6.154;2023-06-10T08:57:35;9.30;;;3.28;;
47021;SDS011;32779;52.264;6.154;2023-06-10T09:00:02;9.23;;;2.95;;
47021;SDS011;32779;52.264;6.154;2023-06-10T09:02:28;7.80;;;3.00;;
47021;SDS011;32779;52.264;6.154;2023-06-10T09:04:55;5.00;;;2.83;;
47021;SDS011;32779;52.264;6.154;2023-06-10T09:07:25;4.43;;;3.28;;
47021;SDS011;32779;52.264;6.154;2023-06-10T09:09:51;6.57;;;3.10;;
47021;SDS011;32779;52.264;6.154;2023-06-10T09:12:18;7.35;;;3.25;;
47021;SDS011;32779;52.264;6.154;2023-06-10T09:14:44;7.47;;;3.10;;
47021;SDS011;32779;52.264;6.154;2023-06-10T09:17:10;8.30;;;3.08;;
47021;SDS011;32779;52.264;6.154;2023-06-10T09:19:36;6.15;;;3.08;;
47021;SDS011;32779;52.264;6.154;2023-06-10T09:22:03;8.35;;;2.97;;
47021;SDS011;32779;52.264;6.154;2023-06-10T09:24:29;6.53;;;3.00;;
47021;SDS011;32779;52.264;6.154;2023-06-10T09:27:02;4.25;;;3.10;;
47021;SDS011;32779;52.264;6.154;2023-06-10T09:30:14;5.35;;;3.15;;
47021;SDS011;32779;52.264;6.154;2023-06-10T09:32:22;6.30;;;2.65;;
47021;SDS011;32779;52.264;6.154;2023-06-10T09:34:49;5.05;;;2.90;;
47021;SDS011;32779;52.264;6.154;2023-06-10T09:37:21;6.68;;;3.13;;
47021;SDS011;32779;52.264;6.154;2023-06-10T09:40:03;6.40;;;2.95;;
47021;SDS011;32779;52.264;6.154;2023-06-10T09:42:32;6.75;;;2.85;;
47021;SDS011;32779;52.264;6.154;2023-06-10T09:44:59;8.30;;;3.67;;
47021;SDS011;32779;52.264;6.154;2023-06-10T09:47:25;11.65;;;3.97;;
47021;SDS011;32779;52.264;6.154;2023-06-10T09:49:50;8.07;;;3.33;;
47021;SDS011;32779;52.264;6.154;2023-06-10T09:52:25;7.93;;;3.00;;
47021;SDS011;32779;52.264;6.154;2023-06-10T09:55:02;7.90;;;3.30;;
47021;SDS011;32779;52.264;6.154;2023-06-10T09:57:31;8.07;;;3.13;;
47021;SDS011;32779;52.264;6.154;2023-06-10T10:00:09;6.03;;;2.78;;
47021;SDS011;32779;52.264;6.154;2023-06-10T10:05:19;7.70;;;2.80;;
47021;SDS011;32779;52.264;6.154;2023-06-10T10:07:46;7.63;;;3.10;;
47021;SDS011;32779;52.264;6.154;2023-06-10T10:10:13;6.07;;;3.17;;
47021;SDS011;32779;52.264;6.154;2023-06-10T10:12:40;4.85;;;2.70;;
47021;SDS011;32779;52.264;6.154;2023-06-10T10:15:10;5.55;;;3.28;;
47021;SDS011;32779;52.264;6.154;2023-06-10T10:17:40;5.78;;;2.90;;
47021;SDS011;32779;52.264;6.154;2023-06-10T10:20:12;4.97;;;3.03;;
47021;SDS011;32779;52.264;6.154;2023-06-10T10:22:39;5.13;;;2.97;;
47021;SDS011;32779;52.264;6.154;2023-06-10T10:25:10;4.60;;;2.55;;
47021;SDS011;32779;52.264;6.154;2023-06-10T10:27:42;5.35;;;2.90;;
47021;SDS011;32779;52.264;6.154;2023-06-10T10:30:11;5.63;;;2.92;;
47021;SDS011;32779;52.264;6.154;2023-06-10T10:32:58;7.25;;;2.85;;
47021;SDS011;32779;52.264;6.154;2023-06-10T10:35:30;9.90;;;3.75;;
47021;SDS011;32779;52.264;6.154;2023-06-10T10:37:57;4.40;;;2.67;;
47021;SDS011;32779;52.264;6.154;2023-06-10T10:40:24;9.68;;;2.90;;
47021;SDS011;32779;52.264;6.154;2023-06-10T10:42:51;5.63;;;2.97;;
47021;SDS011;32779;52.264;6.154;2023-06-10T10:45:18;6.47;;;2.97;;
47021;SDS011;32779;52.264;6.154;2023-06-10T10:47:46;5.53;;;2.90;;
47021;SDS011;32779;52.264;6.154;2023-06-10T10:50:17;6.70;;;3.00;;
47021;SDS011;32779;52.264;6.154;2023-06-10T10:55:20;5.73;;;3.03;;
47021;SDS011;32779;52.264;6.154;2023-06-10T10:57:53;4.78;;;2.70;;
47021;SDS011;32779;52.264;6.154;2023-06-10T11:00:25;5.85;;;2.63;;
47021;SDS011;32779;52.264;6.154;2023-06-10T11:03:00;4.50;;;3.05;;
47021;SDS011;32779;52.264;6.154;2023-06-10T11:08:05;5.22;;;2.83;;
47021;SDS011;32779;52.264;6.154;2023-06-10T11:10:33;8.45;;;2.70;;
47021;SDS011;32779;52.264;6.154;2023-06-10T11:13:02;7.28;;;3.10;;
47021;SDS011;32779;52.264;6.154;2023-06-10T11:15:38;6.05;;;3.05;;
47021;SDS011;32779;52.264;6.154;2023-06-10T11:31:25;5.05;;;3.05;;
47021;SDS011;32779;52.264;6.154;2023-06-10T11:36:19;5.70;;;2.70;;
47021;SDS011;32779;52.264;6.154;2023-06-10T11:38:46;7.05;;;2.88;;
47021;SDS011;32779;52.264;6.154;2023-06-10T11:41:12;5.35;;;2.88;;
47021;SDS011;32779;52.264;6.154;2023-06-10T11:43:45;4.07;;;3.10;;
47021;SDS011;32779;52.264;6.154;2023-06-10T11:46:11;5.30;;;2.92;;
47021;SDS011;32779;52.264;6.154;2023-06-10T11:48:37;5.43;;;2.70;;
47021;SDS011;32779;52.264;6.154;2023-06-10T11:51:06;8.05;;;3.22;;
47021;SDS011;32779;52.264;6.154;2023-06-10T11:53:33;7.97;;;2.97;;
47021;SDS011;32779;52.264;6.154;2023-06-10T11:56:00;7.10;;;3.10;;
47021;SDS011;32779;52.264;6.154;2023-06-10T11:58:26;5.43;;;2.58;;
47021;SDS011;32779;52.264;6.154;2023-06-10T12:00:52;4.70;;;2.90;;
47021;SDS011;32779;52.264;6.154;2023-06-10T12:03:26;7.43;;;2.65;;
47021;SDS011;32779;52.264;6.154;2023-06-10T12:06:01;6.38;;;3.17;;
47021;SDS011;32779;52.264;6.154;2023-06-10T12:08:27;4.75;;;2.95;;
47021;SDS011;32779;52.264;6.154;2023-06-10T12:10:53;5.78;;;3.00;;
47021;SDS011;32779;52.264;6.154;2023-06-10T12:13:20;5.75;;;2.70;;
47021;SDS011;32779;52.264;6.154;2023-06-10T12:15:46;3.50;;;2.80;;
47021;SDS011;32779;52.264;6.154;2023-06-10T12:18:16;7.35;;;3.10;;
47021;SDS011;32779;52.264;6.154;2023-06-10T12:20:49;4.30;;;3.08;;
47021;SDS011;32779;52.264;6.154;2023-06-10T12:23:18;4.57;;;2.90;;
47021;SDS011;32779;52.264;6.154;2023-06-10T12:25:51;7.80;;;3.30;;
47021;SDS011;32779;52.264;6.154;2023-06-10T12:28:24;5.07;;;2.80;;
47021;SDS011;32779;52.264;6.154;2023-06-10T12:30:51;4.93;;;3.30;;
47021;SDS011;32779;52.264;6.154;2023-06-10T12:33:32;6.70;;;2.90;;
47021;SDS011;32779;52.264;6.154;2023-06-10T12:35:58;5.20;;;3.15;;
47021;SDS011;32779;52.264;6.154;2023-06-10T12:38:24;8.25;;;3.45;;
47021;SDS011;32779;52.264;6.154;2023-06-10T12:40:54;8.80;;;3.05;;
47021;SDS011;32779;52.264;6.154;2023-06-10T12:43:26;6.13;;;3.30;;
47021;SDS011;32779;52.264;6.154;2023-06-10T12:45:52;8.60;;;3.00;;
47021;SDS011;32779;52.264;6.154;2023-06-10T12:48:20;6.20;;;2.95;;
47021;SDS011;32779;52.264;6.154;2023-06-10T12:50:57;5.07;;;3.00;;
47021;SDS011;32779;52.264;6.154;2023-06-10T12:53:23;8.20;;;3.65;;
47021;SDS011;32779;52.264;6.154;2023-06-10T12:55:51;4.85;;;3.00;;
47021;SDS011;32779;52.264;6.154;2023-06-10T12:58:19;5.75;;;2.80;;
47021;SDS011;32779;52.264;6.154;2023-06-10T13:00:45;3.15;;;2.58;;
47021;SDS011;32779;52.264;6.154;2023-06-10T13:03:13;8.80;;;3.05;;
47021;SDS011;32779;52.264;6.154;2023-06-10T13:05:39;5.82;;;2.90;;
47021;SDS011;32779;52.264;6.154;2023-06-10T13:08:05;3.78;;;3.00;;
47021;SDS011;32779;52.264;6.154;2023-06-10T13:10:32;6.05;;;2.83;;
47021;SDS011;32779;52.264;6.154;2023-06-10T13:12:59;4.72;;;2.83;;
47021;SDS011;32779;52.264;6.154;2023-06-10T13:15:30;3.72;;;2.97;;
47021;SDS011;32779;52.264;6.154;2023-06-10T13:17:57;5.68;;;2.60;;
47021;SDS011;32779;52.264;6.154;2023-06-10T13:20:23;4.90;;;3.17;;
47021;SDS011;32779;52.264;6.154;2023-06-10T13:22:49;3.88;;;2.47;;
47021;SDS011;32779;52.264;6.154;2023-06-10T13:25:15;5.70;;;3.10;;
47021;SDS011;32779;52.264;6.154;2023-06-10T13:27:41;8.52;;;3.20;;
47021;SDS011;32779;52.264;6.154;2023-06-10T13:30:07;6.68;;;2.53;;
47021;SDS011;32779;52.264;6.154;2023-06-10T13:32:34;3.15;;;2.53;;
47021;SDS011;32779;52.264;6.154;2023-06-10T13:35:00;3.58;;;2.40;;
47021;SDS011;32779;52.264;6.154;2023-06-10T13:37:26;3.72;;;2.83;;
47021;SDS011;32779;52.264;6.154;2023-06-10T13:39:52;4.80;;;2.58;;
47021;SDS011;32779;52.264;6.154;2023-06-10T13:42:18;5.25;;;2.85;;
47021;SDS011;32779;52.264;6.154;2023-06-10T13:44:44;4.85;;;2.90;;
47021;SDS011;32779;52.264;6.154;2023-06-10T13:47:09;4.40;;;2.78;;
47021;SDS011;32779;52.264;6.154;2023-06-10T13:49:35;2.80;;;2.33;;
47021;SDS011;32779;52.264;6.154;2023-06-10T13:52:01;2.72;;;2.33;;
47021;SDS011;32779;52.264;6.154;2023-06-10T13:54:27;6.63;;;2.60;;
47021;SDS011;32779;52.264;6.154;2023-06-10T13:56:53;5.10;;;2.50;;
47021;SDS011;32779;52.264;6.154;2023-06-10T13:59:19;5.65;;;2.78;;
47021;SDS011;32779;52.264;6.154;2023-06-10T14:01:45;4.25;;;2.58;;
47021;SDS011;32779;52.264;6.154;2023-06-10T14:04:11;4.93;;;2.60;;
47021;SDS011;32779;52.264;6.154;2023-06-10T14:06:36;7.13;;;2.40;;
47021;SDS011;32779;52.264;6.154;2023-06-10T14:09:02;3.40;;;2.42;;
47021;SDS011;32779;52.264;6.154;2023-06-10T14:11:28;7.88;;;3.40;;
47021;SDS011;32779;52.264;6.154;2023-06-10T14:13:54;3.75;;;2.20;;
47021;SDS011;32779;52.264;6.154;2023-06-10T14:16:21;5.32;;;2.80;;
47021;SDS011;32779;52.264;6.154;2023-06-10T14:18:47;5.10;;;2.38;;
47021;SDS011;32779;52.264;6.154;2023-06-10T14:21:13;3.72;;;2.45;;
47021;SDS011;32779;52.264;6.154;2023-06-10T14:23:38;6.03;;;2.53;;
47021;SDS011;32779;52.264;6.154;2023-06-10T14:26:04;6.30;;;2.50;;
47021;SDS011;32779;52.264;6.154;2023-06-10T14:28:32;5.72;;;2.70;;
47021;SDS011;32779;52.264;6.154;2023-06-10T14:30:57;7.53;;;2.85;;
47021;SDS011;32779;52.264;6.154;2023-06-10T14:33:23;10.75;;;3.10;;
47021;SDS011;32779;52.264;6.154;2023-06-10T14:35:48;4.28;;;2.60;;
47021;SDS011;32779;52.264;6.154;2023-06-10T14:38:14;5.15;;;2.72;;
47021;SDS011;32779;52.264;6.154;2023-06-10T14:40:40;5.70;;;2.67;;
47021;SDS011;32779;52.264;6.154;2023-06-10T14:43:05;5.63;;;2.78;;
47021;SDS011;32779;52.264;6.154;2023-06-10T14:45:38;5.28;;;2.90;;
47021;SDS011;32779;52.264;6.154;2023-06-10T14:48:05;6.57;;;3.25;;
47021;SDS011;32779;52.264;6.154;2023-06-10T14:50:32;5.57;;;3.90;;
47021;SDS011;32779;52.264;6.154;2023-06-10T14:53:00;3.83;;;2.95;;
47021;SDS011;32779;52.264;6.154;2023-06-10T14:55:25;5.38;;;2.70;;
47021;SDS011;32779;52.264;6.154;2023-06-10T14:57:51;5.53;;;2.35;;
47021;SDS011;32779;52.264;6.154;2023-06-10T15:00:17;4.13;;;2.58;;
47021;SDS011;32779;52.264;6.154;2023-06-10T15:02:47;2.38;;;2.17;;
47021;SDS011;32779;52.264;6.154;2023-06-10T15:05:13;5.05;;;2.63;;
47021;SDS011;32779;52.264;6.154;2023-06-10T15:07:40;7.57;;;3.40;;
47021;SDS011;32779;52.264;6.154;2023-06-10T15:10:06;5.53;;;3.00;;
47021;SDS011;32779;52.264;6.154;2023-06-10T15:12:32;5.93;;;2.72;;
47021;SDS011;32779;52.264;6.154;2023-06-10T15:14:58;5.00;;;2.60;;
47021;SDS011;32779;52.264;6.154;2023-06-10T15:17:23;5.10;;;2.63;;
47021;SDS011;32779;52.264;6.154;2023-06-10T15:19:49;3.47;;;2.60;;
47021;SDS011;32779;52.264;6.154;2023-06-10T15:22:14;3.13;;;2.78;;
47021;SDS011;32779;52.264;6.154;2023-06-10T15:24:40;6.43;;;2.80;;
47021;SDS011;32779;52.264;6.154;2023-06-10T15:27:05;5.18;;;2.90;;
47021;SDS011;32779;52.264;6.154;2023-06-10T15:29:31;6.05;;;2.92;;
47021;SDS011;32779;52.264;6.154;2023-06-10T15:31:57;4.60;;;2.92;;
47021;SDS011;32779;52.264;6.154;2023-06-10T15:34:23;2.97;;;2.45;;
47021;SDS011;32779;52.264;6.154;2023-06-10T15:36:48;7.43;;;3.08;;
47021;SDS011;32779;52.264;6.154;2023-06-10T15:39:14;3.20;;;2.50;;
47021;SDS011;32779;52.264;6.154;2023-06-10T15:41:40;3.72;;;2.85;;
47021;SDS011;32779;52.264;6.154;2023-06-10T15:44:06;3.35;;;2.55;;
47021;SDS011;32779;52.264;6.154;2023-06-10T15:46:32;4.55;;;2.85;;
47021;SDS011;32779;52.264;6.154;2023-06-10T15:48:59;7.97;;;2.95;;
47021;SDS011;32779;52.264;6.154;2023-06-10T15:51:25;3.97;;;2.80;;
47021;SDS011;32779;52.264;6.154;2023-06-10T15:53:50;3.28;;;2.85;;
47021;SDS011;32779;52.264;6.154;2023-06-10T15:56:16;6.43;;;2.97;;
47021;SDS011;32779;52.264;6.154;2023-06-10T15:58:43;3.33;;;2.63;;
47021;SDS011;32779;52.264;6.154;2023-06-10T16:01:08;4.70;;;3.00;;
47021;SDS011;32779;52.264;6.154;2023-06-10T16:03:36;5.20;;;2.72;;
47021;SDS011;32779;52.264;6.154;2023-06-10T16:06:01;6.07;;;2.78;;
47021;SDS011;32779;52.264;6.154;2023-06-10T16:08:27;4.85;;;2.67;;
47021;SDS011;32779;52.264;6.154;2023-06-10T16:10:53;4.70;;;2.90;;
47021;SDS011;32779;52.264;6.154;2023-06-10T16:13:19;2.78;;;2.42;;
47021;SDS011;32779;52.264;6.154;2023-06-10T16:15:44;6.22;;;3.47;;
47021;SDS011;32779;52.264;6.154;2023-06-10T16:18:10;6.53;;;2.78;;
47021;SDS011;32779;52.264;6.154;2023-06-10T16:20:35;7.45;;;2.97;;
47021;SDS011;32779;52.264;6.154;2023-06-10T16:23:04;8.50;;;3.58;;
47021;SDS011;32779;52.264;6.154;2023-06-10T16:25:30;4.75;;;3.05;;
47021;SDS011;32779;52.264;6.154;2023-06-10T16:27:58;4.70;;;2.60;;
47021;SDS011;32779;52.264;6.154;2023-06-10T16:30:25;4.40;;;2.80;;
47021;SDS011;32779;52.264;6.154;2023-06-10T16:32:50;7.00;;;2.90;;
47021;SDS011;32779;52.264;6.154;2023-06-10T16:35:16;6.13;;;2.72;;
47021;SDS011;32779;52.264;6.154;2023-06-10T16:37:42;7.38;;;3.05;;
47021;SDS011;32779;52.264;6.154;2023-06-10T16:40:08;4.80;;;3.13;;
47021;SDS011;32779;52.264;6.154;2023-06-10T16:42:34;3.97;;;2.78;;